Time;durP1;ratioP1;P1;durP2;ratioP2;P2;SDS_P1;SDS_P2;PMS_P1;PMS_P2;Temp;Humidity;BMP_temperature;BMP_pressure;BME280_temperature;BME280_humidity;BME280_pressure;Samples;Min_cycle;Max_cycle;Signal;HPM_P1;HPM_P2
2022/04/01 00:01:55;;;;;;;1.10;0.70;;;2.60;89.90;;;;;;5064784;28;20207;-45
2022/04/01 00:04:22;;;;;;;2.27;0.50;;;2.60;90.00;;;;;;5062841;28;20279;-50
2022/04/01 00:06:49;;;;;;;0.50;0.50;;;2.60;90.40;;;;;;5056138;28;20229;-45
2022/04/01 00:09:16;;;;;;;1.10;0.50;;;2.60;90.50;;;;;;5063652;28;20693;-49
2022/04/01 00:11:42;;;;;;;0.57;0.40;;;2.50;90.70;;;;;;5062844;28;20204;-49
2022/04/01 00:14:09;;;;;;;3.13;0.67;;;2.50;90.70;;;;;;5059225;28;20214;-49
2022/04/01 00:16:37;;;;;;;2.47;0.50;;;2.50;90.80;;;;;;5050513;28;20233;-50
2022/04/01 00:19:05;;;;;;;0.57;0.50;;;2.50;91.00;;;;;;5061559;28;20301;-49
2022/04/01 00:21:32;;;;;;;1.00;0.33;;;2.50;91.20;;;;;;5061112;28;20202;-45
2022/04/01 00:23:59;;;;;;;0.50;0.40;;;2.50;91.10;;;;;;5057136;28;20659;-47
2022/04/01 00:26:26;;;;;;;2.17;0.67;;;2.50;91.30;;;;;;5060458;28;20601;-46
2022/04/01 00:28:53;;;;;;;1.90;0.63;;;2.50;91.30;;;;;;5065168;28;20206;-49
2022/04/01 00:31:20;;;;;;;0.60;0.60;;;2.50;91.60;;;;;;5056043;28;20219;-47
2022/04/01 00:34:15;;;;;;;1.10;0.60;;;2.50;91.60;;;;;;5062797;28;20205;-46
2022/04/01 00:36:35;;;;;;;1.50;0.30;;;2.50;91.70;;;;;;5060025;28;20308;-46
2022/04/01 00:39:02;;;;;;;0.37;0.33;;;2.50;92.00;;;;;;5056629;28;20235;-45
2022/04/01 00:41:29;;;;;;;0.80;0.57;;;2.50;92.30;;;;;;5059392;28;20316;-46
2022/04/01 00:44:12;;;;;;;1.27;0.53;;;2.50;92.70;;;;;;5062468;28;20193;-47
2022/04/01 00:46:40;;;;;;;0.30;0.30;;;2.50;92.60;;;;;;5042605;28;20209;-45
2022/04/01 00:49:08;;;;;;;5.07;0.50;;;2.50;92.80;;;;;;5064229;28;20293;-48
2022/04/01 00:51:37;;;;;;;0.67;0.50;;;2.50;92.80;;;;;;5059119;28;20867;-48
2022/04/01 00:54:05;;;;;;;0.47;0.40;;;2.50;93.00;;;;;;5056736;28;20217;-47
2022/04/01 00:56:33;;;;;;;0.70;0.40;;;2.50;93.10;;;;;;5058099;28;21094;-47
2022/04/01 00:59:00;;;;;;;2.50;0.43;;;2.50;93.00;;;;;;5065141;28;20208;-45
2022/04/01 01:01:27;;;;;;;1.13;0.40;;;2.50;93.60;;;;;;5048184;28;20569;-51
2022/04/01 01:03:55;;;;;;;0.83;0.50;;;2.50;93.60;;;;;;5062667;28;20285;-46
2022/04/01 01:06:24;;;;;;;0.90;0.47;;;2.50;93.40;;;;;;5059568;28;20268;-50
2022/04/01 01:08:50;;;;;;;1.43;0.63;;;2.50;93.20;;;;;;5061507;28;20289;-45
2022/04/01 01:11:18;;;;;;;0.93;0.50;;;2.50;93.40;;;;;;5054934;28;20688;-51
2022/04/01 01:13:45;;;;;;;0.80;0.43;;;2.50;93.80;;;;;;5061662;28;20201;-46
2022/04/01 01:16:13;;;;;;;1.00;0.30;;;2.50;93.60;;;;;;5062116;28;20295;-50
2022/04/01 01:18:40;;;;;;;2.50;0.73;;;2.50;93.50;;;;;;5043637;28;20207;-48
2022/04/01 01:21:09;;;;;;;0.50;0.40;;;2.50;93.80;;;;;;5063262;28;20571;-45
2022/04/01 01:23:39;;;;;;;0.97;0.40;;;2.50;94.00;;;;;;5059486;28;20267;-47
2022/04/01 01:26:07;;;;;;;1.53;0.40;;;2.50;94.00;;;;;;5055658;28;20244;-45
2022/04/01 01:28:35;;;;;;;0.90;0.50;;;2.50;94.40;;;;;;5058306;28;20300;-46
2022/04/01 01:31:05;;;;;;;1.90;0.47;;;2.50;94.70;;;;;;5062163;28;20543;-52
2022/04/01 01:33:32;;;;;;;1.13;0.40;;;2.50;94.70;;;;;;5044809;28;20891;-46
2022/04/01 01:35:59;;;;;;;1.50;0.40;;;2.50;95.10;;;;;;5061132;28;20249;-47
2022/04/01 01:38:26;;;;;;;0.73;0.73;;;2.50;95.30;;;;;;5059349;28;20202;-48
2022/04/01 01:40:54;;;;;;;0.80;0.40;;;2.50;95.30;;;;;;5063062;28;20294;-46
2022/04/01 01:43:24;;;;;;;0.97;0.53;;;2.50;95.70;;;;;;5051926;28;20298;-49
2022/04/01 01:45:51;;;;;;;1.07;0.43;;;2.50;95.50;;;;;;5061798;28;20285;-45
2022/04/01 01:48:18;;;;;;;0.60;0.50;;;2.50;95.90;;;;;;5053471;28;20262;-49
2022/04/01 01:56:14;;;;;;;1.80;0.50;;;2.50;96.10;;;;;;5059098;28;20746;-53
2022/04/01 01:58:48;;;;;;;0.97;0.40;;;2.50;96.20;;;;;;5057277;28;20193;-49
2022/04/01 02:01:15;;;;;;;2.03;0.47;;;2.50;96.80;;;;;;5060294;28;20229;-50
2022/04/01 02:03:42;;;;;;;0.80;0.47;;;2.50;97.00;;;;;;5047814;28;20277;-45
2022/04/01 02:06:09;;;;;;;1.07;0.40;;;2.50;97.30;;;;;;5062220;28;20217;-45
2022/04/01 02:08:36;;;;;;;0.40;0.40;;;2.40;97.60;;;;;;5057479;28;20197;-45
2022/04/01 02:11:03;;;;;;;2.07;0.33;;;2.40;97.60;;;;;;5061371;28;20236;-46
2022/04/01 02:13:31;;;;;;;0.70;0.30;;;2.50;97.70;;;;;;5049475;28;20827;-47
2022/04/01 02:16:00;;;;;;;1.20;0.30;;;2.50;98.30;;;;;;5057827;28;20225;-45
2022/04/01 02:18:27;;;;;;;0.67;0.40;;;2.50;98.30;;;;;;5058326;28;20202;-45
2022/04/01 02:20:54;;;;;;;2.00;0.30;;;2.40;98.00;;;;;;5042410;28;20296;-48
2022/04/01 02:23:21;;;;;;;1.63;0.50;;;2.50;97.90;;;;;;5059877;28;20233;-48
2022/04/01 02:25:48;;;;;;;5.30;0.50;;;2.50;98.50;;;;;;5058675;28;20915;-46
2022/04/01 02:28:15;;;;;;;0.53;0.20;;;2.50;98.30;;;;;;5046167;28;20205;-48
2022/04/01 02:30:42;;;;;;;0.77;0.40;;;2.50;98.40;;;;;;5060390;28;20904;-46
2022/04/01 02:33:29;;;;;;;6.30;0.60;;;2.50;98.10;;;;;;5058771;28;20220;-47
2022/04/01 02:36:02;;;;;;;1.20;0.53;;;2.50;98.50;;;;;;5047082;28;20264;-45
2022/04/01 02:38:30;;;;;;;3.17;0.60;;;2.40;98.40;;;;;;5057057;28;20222;-49
2022/04/01 02:40:58;;;;;;;0.73;0.40;;;2.50;98.80;;;;;;5060985;28;20205;-45
2022/04/01 02:43:30;;;;;;;1.73;0.23;;;2.50;99.00;;;;;;5044689;28;20208;-47
2022/04/01 02:45:57;;;;;;;2.87;0.50;;;2.50;99.30;;;;;;5060678;28;20260;-45
2022/04/01 02:48:24;;;;;;;2.47;0.30;;;2.50;99.40;;;;;;5057221;28;20221;-44
2022/04/01 02:51:15;;;;;;;0.83;0.30;;;2.50;99.80;;;;;;5041460;28;20221;-45
2022/04/01 02:53:43;;;;;;;1.17;0.30;;;2.50;99.80;;;;;;5058654;28;20663;-49
2022/04/01 02:56:10;;;;;;;2.10;0.47;;;2.50;99.90;;;;;;5057763;28;20220;-46
2022/04/01 02:58:37;;;;;;;0.57;0.47;;;2.50;99.90;;;;;;5053990;28;20277;-48
2022/04/01 03:01:05;;;;;;;1.63;0.60;;;2.50;99.90;;;;;;5052259;28;20227;-47
2022/04/01 03:03:33;;;;;;;2.53;0.60;;;2.50;99.90;;;;;;5061584;28;20202;-46
2022/04/01 03:06:04;;;;;;;1.53;0.30;;;2.50;99.90;;;;;;5047588;28;20225;-45
2022/04/01 03:08:33;;;;;;;0.40;0.37;;;2.50;99.90;;;;;;5063505;28;20287;-44
2022/04/01 03:11:00;;;;;;;1.53;0.50;;;2.50;99.90;;;;;;5060286;28;20541;-47
2022/04/01 03:13:27;;;;;;;3.67;0.70;;;2.50;99.90;;;;;;5059169;28;20293;-46
2022/04/01 03:16:14;;;;;;;2.90;0.40;;;2.50;99.90;;;;;;5054817;28;20374;-45
2022/04/01 03:19:00;;;;;;;1.60;0.40;;;2.50;99.90;;;;;;5053873;28;20220;-45
2022/04/01 03:21:29;;;;;;;2.33;0.40;;;2.50;99.90;;;;;;5064264;28;20671;-45
2022/04/01 03:23:59;;;;;;;2.13;0.90;;;2.50;99.90;;;;;;5046822;28;20221;-47
2022/04/01 03:26:26;;;;;;;2.30;0.63;;;2.50;99.90;;;;;;5058604;28;20702;-45
2022/04/01 03:29:06;;;;;;;1.27;0.50;;;2.60;99.80;;;;;;5061211;28;20231;-49
2022/04/01 03:31:34;;;;;;;3.60;0.60;;;2.60;99.70;;;;;;5056585;28;20212;-50
2022/04/01 03:34:04;;;;;;;2.20;0.80;;;2.60;99.80;;;;;;5059790;28;20204;-48
2022/04/01 03:36:31;;;;;;;2.67;0.77;;;2.60;99.90;;;;;;5062907;28;20589;-46
2022/04/01 03:39:00;;;;;;;3.03;0.70;;;2.60;99.90;;;;;;5046421;28;20213;-47
2022/04/01 03:41:56;;;;;;;2.10;0.83;;;2.60;99.90;;;;;;5043971;28;20296;-47
2022/04/01 03:44:24;;;;;;;3.17;0.80;;;2.60;99.90;;;;;;5064165;28;20313;-48
2022/04/01 03:47:02;;;;;;;1.17;0.60;;;2.60;99.90;;;;;;5050261;28;20233;-45
2022/04/01 03:49:32;;;;;;;1.63;0.90;;;2.60;99.90;;;;;;5063889;28;20199;-46
2022/04/01 03:52:00;;;;;;;4.63;1.07;;;2.60;99.90;;;;;;5053886;28;20202;-45
2022/04/01 03:54:33;;;;;;;2.07;1.00;;;2.60;99.90;;;;;;5050861;28;20205;-46
2022/04/01 03:57:04;;;;;;;2.10;1.20;;;2.60;99.90;;;;;;5053735;28;20240;-45
2022/04/01 03:59:54;;;;;;;2.43;1.73;;;2.60;99.90;;;;;;5062078;28;20217;-50
2022/04/01 04:02:40;;;;;;;2.83;1.10;;;2.60;99.90;;;;;;5047268;28;20206;-51
2022/04/01 04:05:09;;;;;;;2.87;0.97;;;2.60;99.90;;;;;;5057229;28;20205;-46
2022/04/01 04:07:38;;;;;;;6.37;1.40;;;2.60;99.90;;;;;;5059687;28;20763;-48
2022/04/01 04:10:10;;;;;;;4.53;1.20;;;2.60;99.90;;;;;;5050396;28;20226;-48
2022/04/01 04:12:50;;;;;;;2.53;1.10;;;2.60;99.90;;;;;;5060654;28;20284;-50
2022/04/01 04:15:17;;;;;;;1.70;1.10;;;2.60;99.90;;;;;;5056826;28;20256;-47
2022/04/01 04:17:45;;;;;;;3.80;1.27;;;2.60;99.90;;;;;;5057264;28;20232;-51
2022/04/01 04:20:19;;;;;;;4.27;1.37;;;2.60;99.90;;;;;;5058094;28;20267;-48
2022/04/01 04:22:52;;;;;;;3.73;1.60;;;2.60;99.90;;;;;;5046506;28;20208;-51
2022/04/01 04:25:25;;;;;;;2.97;1.50;;;2.60;99.90;;;;;;5063053;28;20237;-46
2022/04/01 04:28:00;;;;;;;1.90;1.30;;;2.70;99.90;;;;;;5053602;28;20201;-51
2022/04/01 04:30:33;;;;;;;3.30;2.03;;;2.60;99.90;;;;;;5063917;28;20240;-47
2022/04/01 04:33:30;;;;;;;2.67;1.27;;;2.60;99.90;;;;;;5045406;28;20242;-46
2022/04/01 04:36:04;;;;;;;3.67;1.53;;;2.70;99.90;;;;;;5050303;28;20229;-46
2022/04/01 04:38:38;;;;;;;4.73;1.40;;;2.70;99.90;;;;;;5049246;28;20236;-51
2022/04/01 04:41:09;;;;;;;2.73;1.40;;;2.70;99.90;;;;;;5051160;28;20267;-52
2022/04/01 04:43:44;;;;;;;1.93;1.37;;;2.70;99.90;;;;;;5073239;28;20217;-46
2022/04/01 04:46:14;;;;;;;2.47;1.33;;;2.70;99.90;;;;;;5054524;28;20237;-51
2022/04/01 04:48:43;;;;;;;2.27;1.30;;;2.70;99.90;;;;;;5054888;28;20248;-49
2022/04/01 04:51:11;;;;;;;2.07;1.43;;;2.60;99.90;;;;;;5051013;28;20209;-50
2022/04/01 04:53:59;;;;;;;1.77;1.33;;;2.60;99.90;;;;;;5047255;28;20284;-46
2022/04/01 04:56:29;;;;;;;1.60;1.13;;;2.60;99.90;;;;;;5053234;28;20269;-48
2022/04/01 04:58:56;;;;;;;6.03;1.40;;;2.60;99.90;;;;;;5058533;28;20357;-49
2022/04/01 05:01:30;;;;;;;1.70;1.33;;;2.60;99.90;;;;;;5062992;28;20217;-46
2022/04/01 05:04:12;;;;;;;1.93;1.47;;;2.70;99.90;;;;;;5061948;28;20211;-48
2022/04/01 05:06:47;;;;;;;2.03;1.33;;;2.70;99.90;;;;;;5057937;28;20232;-47
2022/04/01 05:09:40;;;;;;;1.53;1.40;;;2.70;99.90;;;;;;5039615;28;20271;-47
2022/04/01 05:12:28;;;;;;;4.23;1.80;;;2.60;99.90;;;;;;5056124;28;20209;-51
2022/04/01 05:15:20;;;;;;;2.13;1.50;;;2.70;99.90;;;;;;5054377;28;20303;-52
2022/04/01 05:17:56;;;;;;;2.53;1.77;;;2.70;99.90;;;;;;5052092;28;20238;-48
2022/04/01 05:20:28;;;;;;;2.43;1.40;;;2.70;99.90;;;;;;5050838;28;20205;-49
2022/04/01 05:23:06;;;;;;;4.77;1.70;;;2.70;99.90;;;;;;5057850;28;20194;-48
2022/04/01 05:25:41;;;;;;;2.60;1.40;;;2.70;99.90;;;;;;5043106;28;20216;-50
2022/04/01 05:28:23;;;;;;;1.80;1.37;;;2.70;99.90;;;;;;5052256;28;20643;-47
2022/04/01 05:31:04;;;;;;;2.67;1.73;;;2.70;99.90;;;;;;5054486;28;20218;-50
2022/04/01 05:33:41;;;;;;;4.07;1.60;;;2.80;99.90;;;;;;5054081;28;20213;-51
2022/04/01 05:36:10;;;;;;;5.50;1.60;;;2.80;99.90;;;;;;5052274;28;20252;-50
2022/04/01 05:38:38;;;;;;;5.97;1.80;;;2.80;99.90;;;;;;5052493;28;20226;-52
2022/04/01 05:41:06;;;;;;;4.30;1.83;;;2.80;99.90;;;;;;5046744;28;20293;-52
2022/04/01 05:43:35;;;;;;;5.70;1.80;;;2.80;99.90;;;;;;5059791;28;20197;-51
2022/04/01 05:46:22;;;;;;;3.00;1.70;;;2.80;99.90;;;;;;5048471;28;20229;-47
2022/04/01 05:48:51;;;;;;;4.00;1.93;;;2.90;99.90;;;;;;5054566;28;20222;-51
2022/04/01 05:51:19;;;;;;;2.43;1.77;;;2.90;99.90;;;;;;5051590;28;20199;-49
2022/04/01 05:53:50;;;;;;;4.27;1.80;;;2.90;99.90;;;;;;5046903;28;20211;-51
2022/04/01 05:56:18;;;;;;;1.80;1.70;;;2.90;99.90;;;;;;5034663;28;20256;-49
2022/04/01 05:58:49;;;;;;;3.60;1.67;;;2.90;99.90;;;;;;5056774;28;20220;-47
2022/04/01 06:01:22;;;;;;;2.77;1.60;;;2.90;99.90;;;;;;5055163;28;20206;-52
2022/04/01 06:04:16;;;;;;;3.10;2.43;;;3.00;99.90;;;;;;5061589;28;20803;-48
2022/04/01 06:06:45;;;;;;;2.90;2.03;;;3.00;99.90;;;;;;5051588;28;20272;-46
2022/04/01 06:09:43;;;;;;;5.00;1.70;;;3.00;99.90;;;;;;5053054;28;20205;-51
2022/04/01 06:12:21;;;;;;;5.23;2.20;;;3.00;99.90;;;;;;5048485;28;20218;-49
2022/04/01 06:15:17;;;;;;;5.37;2.00;;;3.00;99.90;;;;;;5066661;28;20251;-50
2022/04/01 06:18:12;;;;;;;3.27;1.93;;;3.00;99.90;;;;;;5063406;28;20347;-48
2022/04/01 06:20:41;;;;;;;5.03;1.80;;;3.10;99.90;;;;;;5057526;28;20942;-47
2022/04/01 06:23:17;;;;;;;3.63;1.90;;;3.10;99.90;;;;;;5048289;28;20669;-48
2022/04/01 06:25:55;;;;;;;3.33;2.20;;;3.10;99.90;;;;;;5048239;28;20227;-46
2022/04/01 06:28:25;;;;;;;8.13;1.57;;;3.10;99.90;;;;;;5051575;28;20681;-53
2022/04/01 06:31:03;;;;;;;5.23;1.90;;;3.10;99.90;;;;;;5059540;28;20201;-48
2022/04/01 06:33:38;;;;;;;3.93;2.40;;;3.20;99.90;;;;;;5041889;28;20275;-52
2022/04/01 06:36:45;;;;;;;4.17;1.87;;;3.20;99.90;;;;;;5054722;28;20256;-49
2022/04/01 06:39:21;;;;;;;2.13;1.90;;;3.30;99.90;;;;;;5053298;28;20224;-53
2022/04/01 06:41:56;;;;;;;1.97;1.57;;;3.30;99.90;;;;;;5052864;28;20206;-49
2022/04/01 06:44:41;;;;;;;4.63;1.90;;;3.30;99.90;;;;;;5060297;28;20351;-46
2022/04/01 06:47:34;;;;;;;1.70;1.60;;;3.30;99.90;;;;;;5048813;28;20316;-49
2022/04/01 06:50:00;;;;;;;4.63;2.37;;;3.40;99.90;;;;;;5064089;28;20695;-46
2022/04/01 06:52:56;;;;;;;3.63;1.77;;;3.40;99.90;;;;;;5010683;28;20251;-47
2022/04/01 06:55:42;;;;;;;4.27;2.20;;;3.40;99.90;;;;;;5052519;28;20374;-50
2022/04/01 06:58:26;;;;;;;2.53;1.97;;;3.50;99.90;;;;;;5050166;28;20299;-51
2022/04/01 07:00:59;;;;;;;3.97;1.90;;;3.50;99.90;;;;;;5062762;28;20206;-47
2022/04/01 07:03:27;;;;;;;2.50;2.30;;;3.50;99.90;;;;;;5046045;28;20226;-46
2022/04/01 07:05:53;;;;;;;2.87;1.90;;;3.60;99.90;;;;;;5063032;28;20694;-49
2022/04/01 07:08:21;;;;;;;5.00;2.10;;;3.60;99.90;;;;;;5055198;28;20214;-49
2022/04/01 07:10:48;;;;;;;6.73;2.40;;;3.60;99.90;;;;;;5057204;28;20671;-51
2022/04/01 07:13:15;;;;;;;3.77;2.57;;;3.70;99.90;;;;;;5049746;28;20202;-53
2022/04/01 07:15:42;;;;;;;4.63;2.10;;;3.70;99.90;;;;;;5063610;28;20227;-49
2022/04/01 07:18:09;;;;;;;4.20;2.10;;;3.70;99.90;;;;;;5066637;28;20213;-53
2022/04/01 07:20:37;;;;;;;2.30;1.90;;;3.80;99.90;;;;;;5064250;28;20216;-49
2022/04/01 07:23:04;;;;;;;3.97;2.10;;;3.80;99.90;;;;;;5057930;28;20198;-53
2022/04/01 07:25:31;;;;;;;4.33;1.80;;;3.90;99.90;;;;;;5062845;28;20277;-47
2022/04/01 07:27:58;;;;;;;3.20;2.20;;;3.90;99.90;;;;;;5057180;28;20209;-50
2022/04/01 07:30:25;;;;;;;2.60;2.20;;;3.90;99.90;;;;;;5049206;28;20206;-46
2022/04/01 07:32:57;;;;;;;3.43;2.30;;;3.90;99.90;;;;;;5064684;28;20202;-49
2022/04/01 07:35:24;;;;;;;3.77;1.80;;;3.90;99.90;;;;;;5061304;28;20194;-49
2022/04/01 07:37:52;;;;;;;2.20;2.00;;;3.90;99.90;;;;;;5057916;28;20218;-48
2022/04/01 07:40:20;;;;;;;5.77;2.50;;;4.00;99.90;;;;;;5056142;28;20296;-47
2022/04/01 07:42:48;;;;;;;5.53;2.23;;;4.00;99.90;;;;;;5056778;28;20277;-46
2022/04/01 07:45:15;;;;;;;5.63;2.03;;;4.10;99.90;;;;;;5045652;28;20256;-50
2022/04/01 07:47:44;;;;;;;3.53;2.20;;;4.10;99.90;;;;;;5063293;28;20275;-46
2022/04/01 07:50:12;;;;;;;2.97;2.10;;;4.10;99.90;;;;;;5057486;28;20205;-51
2022/04/01 07:52:40;;;;;;;2.27;2.07;;;4.10;99.90;;;;;;5063980;28;20206;-49
2022/04/01 07:55:10;;;;;;;3.83;2.17;;;4.10;99.90;;;;;;5054579;28;20216;-51
2022/04/01 07:57:37;;;;;;;5.13;2.10;;;4.10;99.90;;;;;;5053805;28;20222;-47
2022/04/01 08:00:04;;;;;;;3.63;2.50;;;4.20;99.90;;;;;;5049278;28;20264;-51
2022/04/01 08:02:39;;;;;;;4.50;2.13;;;4.20;99.90;;;;;;5062216;28;20202;-47
2022/04/01 08:05:07;;;;;;;3.10;2.00;;;4.20;99.90;;;;;;5062033;28;20198;-51
2022/04/01 08:07:33;;;;;;;6.00;2.47;;;4.30;99.90;;;;;;5060442;28;20268;-46
2022/04/01 08:10:00;;;;;;;2.40;2.20;;;4.40;99.90;;;;;;5058494;28;20230;-50
2022/04/01 08:12:28;;;;;;;3.57;2.47;;;4.40;99.90;;;;;;5052369;28;20202;-46
2022/04/01 08:14:55;;;;;;;7.00;2.40;;;4.50;99.90;;;;;;5068507;28;20198;-47
2022/04/01 08:17:22;;;;;;;3.53;2.10;;;4.60;99.90;;;;;;5046126;28;20869;-50
2022/04/01 08:19:50;;;;;;;6.07;2.20;;;4.60;99.90;;;;;;5061677;28;20203;-46
2022/04/01 08:22:19;;;;;;;4.50;2.40;;;4.60;99.90;;;;;;5059738;28;20191;-50
2022/04/01 08:24:46;;;;;;;3.33;2.30;;;4.60;99.90;;;;;;5057749;28;20205;-45
2022/04/01 08:27:14;;;;;;;5.17;2.50;;;4.70;99.90;;;;;;5059860;28;20223;-53
2022/04/01 08:29:44;;;;;;;4.13;2.40;;;4.80;99.90;;;;;;5054394;28;20210;-47
2022/04/01 08:32:11;;;;;;;3.13;2.30;;;4.80;99.90;;;;;;5045671;28;20282;-49
2022/04/01 08:34:38;;;;;;;7.43;2.73;;;4.70;99.90;;;;;;5062082;28;20249;-50
2022/04/01 08:37:07;;;;;;;5.80;2.70;;;4.70;99.90;;;;;;5060987;28;20215;-52
2022/04/01 08:39:34;;;;;;;4.30;2.57;;;4.70;99.90;;;;;;5061651;28;20216;-46
2022/04/01 08:42:04;;;;;;;4.37;2.60;;;4.70;99.90;;;;;;5057657;28;20213;-48
2022/04/01 08:44:30;;;;;;;3.97;2.67;;;4.70;98.90;;;;;;5053238;28;20229;-47
2022/04/01 08:46:59;;;;;;;5.87;2.97;;;4.80;99.90;;;;;;5062651;28;20233;-48
2022/04/01 08:49:26;;;;;;;3.47;2.40;;;4.80;99.60;;;;;;5048004;28;20205;-47
2022/04/01 08:51:53;;;;;;;3.03;2.57;;;4.80;99.70;;;;;;5062604;28;20214;-48
2022/04/01 08:54:20;;;;;;;2.27;2.17;;;4.90;99.80;;;;;;5057545;28;20306;-51
2022/04/01 08:56:47;;;;;;;4.57;2.70;;;4.90;99.30;;;;;;5057035;28;20215;-49
2022/04/01 08:59:14;;;;;;;3.50;2.50;;;4.90;98.60;;;;;;5051354;28;20227;-47
2022/04/01 09:01:42;;;;;;;5.13;2.50;;;4.90;98.60;;;;;;5063090;28;20277;-50
2022/04/01 09:04:22;;;;;;;3.57;2.40;;;5.00;98.80;;;;;;5048356;28;20567;-50
2022/04/01 09:06:50;;;;;;;3.00;2.37;;;4.90;96.90;;;;;;5062272;28;20309;-48
2022/04/01 09:09:25;;;;;;;3.57;2.27;;;4.90;98.20;;;;;;5059796;28;20252;-49
2022/04/01 09:12:12;;;;;;;2.70;2.17;;;4.90;97.20;;;;;;5061967;28;20562;-50
2022/04/01 09:14:41;;;;;;;3.80;2.27;;;4.90;98.30;;;;;;5057771;28;20214;-48
2022/04/01 09:17:11;;;;;;;3.93;1.90;;;5.00;98.40;;;;;;5061235;28;20222;-50
2022/04/01 09:19:39;;;;;;;3.87;1.97;;;4.90;98.10;;;;;;5047872;28;20288;-47
2022/04/01 09:22:20;;;;;;;6.17;2.10;;;4.90;98.40;;;;;;5061773;28;20659;-47
2022/04/01 09:24:58;;;;;;;2.57;1.63;;;4.90;97.10;;;;;;5062434;28;20225;-51
2022/04/01 09:27:39;;;;;;;2.47;1.80;;;4.90;97.80;;;;;;5053172;28;21014;-50
2022/04/01 09:30:07;;;;;;;2.77;1.63;;;4.90;97.70;;;;;;5053953;28;20716;-53
2022/04/01 09:32:39;;;;;;;2.80;1.50;;;4.90;98.40;;;;;;5056804;28;20207;-52
2022/04/01 09:35:10;;;;;;;7.50;1.83;;;4.90;98.20;;;;;;5041972;28;20293;-52
2022/04/01 09:37:39;;;;;;;2.83;1.53;;;5.00;98.50;;;;;;5061111;28;20648;-47
2022/04/01 09:40:07;;;;;;;3.10;1.70;;;5.00;98.20;;;;;;5058037;28;20215;-49
2022/04/01 09:42:34;;;;;;;3.23;1.60;;;5.00;98.60;;;;;;5061538;28;20277;-46
2022/04/01 09:45:03;;;;;;;2.53;2.00;;;5.00;99.20;;;;;;5054411;28;20202;-52
2022/04/01 09:47:37;;;;;;;6.00;2.30;;;5.00;99.20;;;;;;5053358;28;20301;-53
2022/04/01 09:50:17;;;;;;;5.40;1.70;;;5.00;98.90;;;;;;5045689;28;20241;-48
2022/04/01 09:52:45;;;;;;;3.53;1.73;;;5.00;99.00;;;;;;5061151;28;20205;-48
2022/04/01 09:55:12;;;;;;;5.03;1.80;;;5.10;98.90;;;;;;5058470;28;20278;-49
2022/04/01 09:57:39;;;;;;;1.70;1.57;;;5.10;98.40;;;;;;5060852;28;20683;-48
2022/04/01 10:00:09;;;;;;;2.70;1.30;;;5.10;98.30;;;;;;5052048;28;20907;-49
2022/04/01 10:02:40;;;;;;;2.90;1.97;;;5.10;97.90;;;;;;5049714;28;20203;-47
2022/04/01 10:05:07;;;;;;;3.13;1.53;;;5.10;97.80;;;;;;5045471;28;21207;-48
2022/04/01 10:07:37;;;;;;;3.47;1.73;;;5.10;97.70;;;;;;5061104;28;20214;-48
2022/04/01 10:10:06;;;;;;;2.57;1.30;;;5.10;97.60;;;;;;5058321;28;20930;-51
2022/04/01 10:12:41;;;;;;;3.87;1.30;;;5.10;97.80;;;;;;5059800;28;20277;-50
2022/04/01 10:15:10;;;;;;;5.50;1.57;;;5.20;97.70;;;;;;5052399;28;20212;-49
2022/04/01 10:17:39;;;;;;;2.93;1.40;;;5.20;97.60;;;;;;5060991;28;20218;-46
2022/04/01 10:20:07;;;;;;;6.10;1.40;;;5.20;97.80;;;;;;5036057;28;21169;-48
2022/04/01 10:22:35;;;;;;;5.20;1.50;;;5.20;97.80;;;;;;5042705;28;20209;-50
2022/04/01 10:25:08;;;;;;;3.00;1.27;;;5.10;97.50;;;;;;5051230;28;20202;-49
2022/04/01 10:27:39;;;;;;;2.93;1.30;;;5.10;97.60;;;;;;5048424;28;20222;-48
2022/04/01 10:30:08;;;;;;;4.37;1.27;;;5.20;97.80;;;;;;5053056;28;20640;-49
2022/04/01 10:32:39;;;;;;;3.67;1.53;;;5.30;97.70;;;;;;5055876;28;20993;-48
2022/04/01 10:35:08;;;;;;;2.37;1.23;;;5.40;97.80;;;;;;5046085;28;20214;-49
2022/04/01 10:37:37;;;;;;;2.83;1.40;;;5.40;97.80;;;;;;5052500;28;20210;-50
2022/04/01 10:40:09;;;;;;;1.73;1.00;;;5.40;97.20;;;;;;5059488;28;20264;-47
2022/04/01 10:42:38;;;;;;;2.10;1.30;;;5.40;97.70;;;;;;5054690;28;20207;-47
2022/04/01 10:45:08;;;;;;;2.60;1.30;;;5.40;97.30;;;;;;5054947;28;20194;-52
2022/04/01 10:53:36;;;;;;;1.43;0.93;;;5.30;97.70;;;;;;5055441;28;20284;-49
2022/04/01 10:56:30;;;;;;;1.87;1.30;;;5.30;97.10;;;;;;5053293;28;20280;-49
2022/04/01 10:59:12;;;;;;;3.40;1.03;;;5.40;98.10;;;;;;5059740;28;20215;-50
2022/04/01 11:01:43;;;;;;;2.53;1.20;;;5.50;97.70;;;;;;5058975;28;20282;-47
2022/04/01 11:04:30;;;;;;;3.20;1.30;;;5.50;96.80;;;;;;5053568;28;20609;-49
2022/04/01 11:06:58;;;;;;;2.13;1.43;;;5.50;96.90;;;;;;5046222;28;20242;-50
2022/04/01 11:09:45;;;;;;;1.63;1.33;;;5.40;97.00;;;;;;5048174;28;20314;-47
2022/04/01 11:12:33;;;;;;;4.10;1.13;;;5.40;97.20;;;;;;5056472;28;20226;-50
2022/04/01 11:15:25;;;;;;;3.60;1.20;;;5.50;97.30;;;;;;5051683;28;20205;-48
2022/04/01 11:18:06;;;;;;;5.77;1.30;;;5.50;97.40;;;;;;5050246;28;20264;-46
2022/04/01 11:20:35;;;;;;;4.30;1.17;;;5.50;97.90;;;;;;5048971;28;20210;-45
2022/04/01 11:23:12;;;;;;;2.50;1.30;;;5.60;98.00;;;;;;5046202;28;20298;-47
2022/04/01 11:25:54;;;;;;;1.30;1.17;;;5.60;97.60;;;;;;5061679;28;20305;-45
2022/04/01 11:28:24;;;;;;;4.17;1.30;;;5.70;97.40;;;;;;5058020;28;20835;-44
2022/04/01 11:31:11;;;;;;;1.50;1.13;;;5.60;96.80;;;;;;5064697;28;20229;-45
2022/04/01 11:33:39;;;;;;;3.90;1.60;;;5.60;95.20;;;;;;5063398;28;20252;-42
2022/04/01 11:36:07;;;;;;;1.70;1.00;;;5.50;96.40;;;;;;5048488;28;20226;-43
2022/04/01 11:38:35;;;;;;;2.20;1.50;;;5.60;96.80;;;;;;5057899;28;20211;-42
2022/04/01 11:41:04;;;;;;;2.43;1.30;;;5.70;96.60;;;;;;5063717;28;20226;-45
2022/04/01 11:43:33;;;;;;;2.67;1.40;;;5.80;96.30;;;;;;5061365;28;20265;-45
2022/04/01 11:46:03;;;;;;;1.33;1.20;;;5.80;96.60;;;;;;5062867;28;20249;-45
2022/04/01 11:48:32;;;;;;;4.40;1.60;;;5.80;96.10;;;;;;5058089;28;20277;-45
2022/04/01 11:51:23;;;;;;;2.90;1.47;;;5.70;96.30;;;;;;5051826;28;20225;-45
2022/04/01 11:53:53;;;;;;;3.63;1.30;;;5.70;96.30;;;;;;5047091;28;20203;-45
2022/04/01 11:56:23;;;;;;;1.50;1.30;;;5.70;96.80;;;;;;5050890;28;20277;-45
2022/04/01 11:58:59;;;;;;;1.90;1.17;;;5.70;96.50;;;;;;5060148;28;20211;-46
2022/04/01 12:01:30;;;;;;;1.30;1.20;;;5.60;95.90;;;;;;5053311;28;20942;-43
2022/04/01 12:04:05;;;;;;;2.27;1.50;;;5.60;96.50;;;;;;5056531;28;20202;-46
2022/04/01 12:09:16;;;;;;;3.77;1.83;;;5.60;96.50;;;;;;5045521;28;20261;-46
2022/04/01 12:11:46;;;;;;;3.13;1.40;;;5.70;97.40;;;;;;5064449;28;20209;-44
2022/04/01 12:14:13;;;;;;;3.17;1.60;;;5.80;95.40;;;;;;5061064;28;20222;-46
2022/04/01 12:16:43;;;;;;;1.90;1.20;;;5.70;95.80;;;;;;5061511;28;20210;-46
2022/04/01 12:19:16;;;;;;;1.77;1.10;;;5.70;95.40;;;;;;5053283;28;20276;-51
2022/04/01 12:21:43;;;;;;;8.53;2.57;;;5.70;96.00;;;;;;5063390;28;20199;-47
2022/04/01 12:24:10;;;;;;;2.87;1.63;;;5.90;96.20;;;;;;5047497;28;20206;-50
2022/04/01 12:26:37;;;;;;;1.60;1.33;;;6.00;96.00;;;;;;5062403;28;20222;-46
2022/04/01 12:29:18;;;;;;;3.10;1.13;;;5.90;96.10;;;;;;5061770;28;20680;-45
2022/04/01 12:31:50;;;;;;;2.50;1.50;;;5.90;94.70;;;;;;5064359;28;20670;-49
2022/04/01 12:34:17;;;;;;;1.50;1.40;;;5.80;95.50;;;;;;5053526;28;20282;-48
2022/04/01 12:36:52;;;;;;;2.20;1.40;;;5.80;95.60;;;;;;5062592;28;20225;-44
2022/04/01 12:39:19;;;;;;;2.73;1.20;;;5.80;95.70;;;;;;5047926;28;20814;-46
2022/04/01 12:41:52;;;;;;;2.67;1.43;;;5.90;96.30;;;;;;5063135;28;20191;-45
2022/04/01 12:44:23;;;;;;;3.40;1.37;;;6.00;93.90;;;;;;5059390;28;20195;-45
2022/04/01 12:46:50;;;;;;;4.50;1.53;;;5.90;94.90;;;;;;5061116;28;20233;-45
2022/04/01 12:49:18;;;;;;;1.87;1.40;;;5.90;95.20;;;;;;5054612;28;20938;-46
2022/04/01 12:51:51;;;;;;;3.47;1.53;;;5.90;94.80;;;;;;5062464;28;20209;-45
2022/04/01 12:54:29;;;;;;;3.43;1.40;;;5.90;94.50;;;;;;5045823;28;20205;-48
2022/04/01 12:56:57;;;;;;;1.20;1.10;;;5.80;93.10;;;;;;5062034;28;20225;-49
2022/04/01 12:59:25;;;;;;;1.10;1.00;;;5.70;94.80;;;;;;5059551;28;20280;-45
2022/04/01 13:02:01;;;;;;;2.53;1.30;;;5.80;94.70;;;;;;5062789;28;20206;-46
2022/04/01 13:04:28;;;;;;;2.53;1.47;;;5.80;94.30;;;;;;5058856;28;20186;-49
2022/04/01 13:07:12;;;;;;;1.87;1.43;;;5.70;93.80;;;;;;5056237;28;20234;-48
2022/04/01 13:09:47;;;;;;;2.83;1.33;;;5.80;94.10;;;;;;5043639;28;20209;-45
2022/04/01 13:12:15;;;;;;;3.10;2.00;;;5.80;93.90;;;;;;5059197;28;20202;-49
2022/04/01 13:14:43;;;;;;;3.83;1.47;;;5.90;94.00;;;;;;5062771;28;20264;-47
2022/04/01 13:17:13;;;;;;;2.27;1.30;;;5.90;93.80;;;;;;5058447;28;20734;-49
2022/04/01 13:19:42;;;;;;;4.13;1.63;;;5.90;93.60;;;;;;5062147;28;20215;-51
2022/04/01 13:22:09;;;;;;;1.67;1.30;;;5.90;93.70;;;;;;5055238;28;20301;-50
2022/04/01 13:24:37;;;;;;;1.93;1.40;;;5.90;93.60;;;;;;5048209;28;20372;-50
2022/04/01 13:27:04;;;;;;;2.30;1.30;;;5.90;93.60;;;;;;5059797;28;20215;-50
2022/04/01 13:29:31;;;;;;;3.03;1.23;;;5.90;93.40;;;;;;5048070;28;20202;-47
2022/04/01 13:31:59;;;;;;;1.43;1.33;;;5.90;92.80;;;;;;5059947;28;20194;-47
2022/04/01 13:34:26;;;;;;;3.13;1.40;;;5.90;93.40;;;;;;5047930;28;20210;-48
2022/04/01 13:36:52;;;;;;;1.70;1.30;;;5.90;93.10;;;;;;5054159;28;20233;-51